sensor_id;sensor_type;location;lat;lon;timestamp;temperature;humidity
71668;DHT22;59504;54.806;9.640;2024-02-26T00:01:06;3.60;84.20
71668;DHT22;59504;54.806;9.640;2024-02-26T00:03:25;3.60;84.90
71668;DHT22;59504;54.806;9.640;2024-02-26T00:05:44;3.60;84.20
71668;DHT22;59504;54.806;9.640;2024-02-26T00:08:03;3.60;84.20
71668;DHT22;59504;54.806;9.640;2024-02-26T00:10:22;3.60;85.00
71668;DHT22;59504;54.806;9.640;2024-02-26T00:12:42;3.70;84.30
71668;DHT22;59504;54.806;9.640;2024-02-26T00:15:01;3.60;84.20
71668;DHT22;59504;54.806;9.640;2024-02-26T00:17:20;3.70;84.40
71668;DHT22;59504;54.806;9.640;2024-02-26T00:19:39;3.70;84.40
71668;DHT22;59504;54.806;9.640;2024-02-26T00:21:59;3.70;84.40
71668;DHT22;59504;54.806;9.640;2024-02-26T00:24:18;3.70;84.40
71668;DHT22;59504;54.806;9.640;2024-02-26T00:26:37;3.70;84.40
71668;DHT22;59504;54.806;9.640;2024-02-26T00:28:57;3.70;84.40
71668;DHT22;59504;54.806;9.640;2024-02-26T00:31:16;3.70;84.30
71668;DHT22;59504;54.806;9.640;2024-02-26T00:33:35;3.60;84.20
71668;DHT22;59504;54.806;9.640;2024-02-26T00:35:54;3.60;84.10
71668;DHT22;59504;54.806;9.640;2024-02-26T00:38:13;3.60;84.10
71668;DHT22;59504;54.806;9.640;2024-02-26T00:40:33;3.60;84.10
71668;DHT22;59504;54.806;9.640;2024-02-26T00:42:52;3.50;84.00
71668;DHT22;59504;54.806;9.640;2024-02-26T00:45:11;3.50;84.70
71668;DHT22;59504;54.806;9.640;2024-02-26T00:47:31;3.50;84.00
71668;DHT22;59504;54.806;9.640;2024-02-26T00:49:50;3.40;83.90
71668;DHT22;59504;54.806;9.640;2024-02-26T00:52:09;3.40;83.80
71668;DHT22;59504;54.806;9.640;2024-02-26T00:54:29;3.40;83.90
71668;DHT22;59504;54.806;9.640;2024-02-26T00:56:45;3.30;83.80
71668;DHT22;59504;54.806;9.640;2024-02-26T00:59:04;3.30;83.70
71668;DHT22;59504;54.806;9.640;2024-02-26T01:01:23;3.20;83.60
71668;DHT22;59504;54.806;9.640;2024-02-26T01:03:42;3.20;83.60
71668;DHT22;59504;54.806;9.640;2024-02-26T01:06:02;3.10;83.60
71668;DHT22;59504;54.806;9.640;2024-02-26T01:08:21;3.10;83.60
71668;DHT22;59504;54.806;9.640;2024-02-26T01:10:40;3.00;83.50
71668;DHT22;59504;54.806;9.640;2024-02-26T01:13:00;3.00;83.50
71668;DHT22;59504;54.806;9.640;2024-02-26T01:15:19;3.00;83.50
71668;DHT22;59504;54.806;9.640;2024-02-26T01:17:42;2.90;83.50
71668;DHT22;59504;54.806;9.640;2024-02-26T01:20:01;2.90;83.50
71668;DHT22;59504;54.806;9.640;2024-02-26T01:22:21;2.80;83.50
71668;DHT22;59504;54.806;9.640;2024-02-26T01:24:40;2.80;84.20
71668;DHT22;59504;54.806;9.640;2024-02-26T01:26:59;2.70;83.40
71668;DHT22;59504;54.806;9.640;2024-02-26T01:29:18;2.70;83.40
71668;DHT22;59504;54.806;9.640;2024-02-26T01:31:37;2.60;83.40
71668;DHT22;59504;54.806;9.640;2024-02-26T01:33:56;2.60;83.30
71668;DHT22;59504;54.806;9.640;2024-02-26T01:36:16;2.50;84.00
71668;DHT22;59504;54.806;9.640;2024-02-26T01:38:35;2.60;83.30
71668;DHT22;59504;54.806;9.640;2024-02-26T01:40:54;2.50;83.30
71668;DHT22;59504;54.806;9.640;2024-02-26T01:43:14;2.50;83.30
71668;DHT22;59504;54.806;9.640;2024-02-26T01:45:33;2.40;83.30
71668;DHT22;59504;54.806;9.640;2024-02-26T01:47:52;2.50;83.40
71668;DHT22;59504;54.806;9.640;2024-02-26T01:50:12;2.40;83.40
71668;DHT22;59504;54.806;9.640;2024-02-26T01:52:31;2.30;83.40
71668;DHT22;59504;54.806;9.640;2024-02-26T01:54:51;2.30;83.50
71668;DHT22;59504;54.806;9.640;2024-02-26T01:57:10;2.30;83.50
71668;DHT22;59504;54.806;9.640;2024-02-26T01:59:30;2.30;83.50
71668;DHT22;59504;54.806;9.640;2024-02-26T02:01:52;2.30;83.50
71668;DHT22;59504;54.806;9.640;2024-02-26T02:04:13;2.20;83.40
71668;DHT22;59504;54.806;9.640;2024-02-26T02:06:33;2.20;83.50
71668;DHT22;59504;54.806;9.640;2024-02-26T02:08:52;2.20;84.30
71668;DHT22;59504;54.806;9.640;2024-02-26T02:11:11;2.20;83.70
71668;DHT22;59504;54.806;9.640;2024-02-26T02:13:33;2.20;84.40
71668;DHT22;59504;54.806;9.640;2024-02-26T02:15:52;2.20;83.70
71668;DHT22;59504;54.806;9.640;2024-02-26T02:18:12;2.20;83.70
71668;DHT22;59504;54.806;9.640;2024-02-26T02:20:32;2.10;84.30
71668;DHT22;59504;54.806;9.640;2024-02-26T02:22:52;2.30;83.80
71668;DHT22;59504;54.806;9.640;2024-02-26T02:25:11;2.10;83.70
71668;DHT22;59504;54.806;9.640;2024-02-26T02:27:30;2.10;83.70
71668;DHT22;59504;54.806;9.640;2024-02-26T02:29:50;2.10;83.70
71668;DHT22;59504;54.806;9.640;2024-02-26T02:32:09;2.10;83.70
71668;DHT22;59504;54.806;9.640;2024-02-26T02:34:28;2.10;84.50
71668;DHT22;59504;54.806;9.640;2024-02-26T02:36:48;2.00;83.60
71668;DHT22;59504;54.806;9.640;2024-02-26T02:39:08;2.00;84.40
71668;DHT22;59504;54.806;9.640;2024-02-26T02:41:27;2.00;84.50
71668;DHT22;59504;54.806;9.640;2024-02-26T02:43:48;2.00;83.80
71668;DHT22;59504;54.806;9.640;2024-02-26T02:46:08;1.90;83.80
71668;DHT22;59504;54.806;9.640;2024-02-26T02:48:27;1.90;83.90
71668;DHT22;59504;54.806;9.640;2024-02-26T02:50:46;1.90;84.10
71668;DHT22;59504;54.806;9.640;2024-02-26T02:53:05;1.90;84.80
71668;DHT22;59504;54.806;9.640;2024-02-26T02:55:25;1.90;84.40
71668;DHT22;59504;54.806;9.640;2024-02-26T02:57:44;1.90;85.30
71668;DHT22;59504;54.806;9.640;2024-02-26T03:00:04;1.80;84.80
71668;DHT22;59504;54.806;9.640;2024-02-26T03:02:23;1.80;84.90
71668;DHT22;59504;54.806;9.640;2024-02-26T03:04:44;1.80;84.60
71668;DHT22;59504;54.806;9.640;2024-02-26T03:07:03;1.70;84.70
71668;DHT22;59504;54.806;9.640;2024-02-26T03:09:22;1.60;84.70
71668;DHT22;59504;54.806;9.640;2024-02-26T03:11:42;1.60;84.50
71668;DHT22;59504;54.806;9.640;2024-02-26T03:14:02;1.60;85.40
71668;DHT22;59504;54.806;9.640;2024-02-26T03:16:21;1.60;84.70
71668;DHT22;59504;54.806;9.640;2024-02-26T03:18:40;1.60;85.40
71668;DHT22;59504;54.806;9.640;2024-02-26T03:20:59;1.60;84.90
71668;DHT22;59504;54.806;9.640;2024-02-26T03:23:18;1.60;85.00
71668;DHT22;59504;54.806;9.640;2024-02-26T03:25:41;1.60;85.00
71668;DHT22;59504;54.806;9.640;2024-02-26T03:28:00;1.60;85.10
71668;DHT22;59504;54.806;9.640;2024-02-26T03:30:20;1.60;85.30
71668;DHT22;59504;54.806;9.640;2024-02-26T03:32:41;1.60;85.30
71668;DHT22;59504;54.806;9.640;2024-02-26T03:35:01;1.60;85.30
71668;DHT22;59504;54.806;9.640;2024-02-26T03:37:22;1.70;85.40
71668;DHT22;59504;54.806;9.640;2024-02-26T03:39:43;1.60;85.50
71668;DHT22;59504;54.806;9.640;2024-02-26T03:42:03;1.70;85.60
71668;DHT22;59504;54.806;9.640;2024-02-26T03:44:17;1.70;85.60
71668;DHT22;59504;54.806;9.640;2024-02-26T03:46:17;1.80;85.70
71668;DHT22;59504;54.806;9.640;2024-02-26T03:48:18;1.70;85.80
71668;DHT22;59504;54.806;9.640;2024-02-26T03:50:38;1.80;85.80
71668;DHT22;59504;54.806;9.640;2024-02-26T03:52:59;1.80;85.90
71668;DHT22;59504;54.806;9.640;2024-02-26T03:55:20;1.80;85.90
71668;DHT22;59504;54.806;9.640;2024-02-26T03:57:45;1.90;86.00
71668;DHT22;59504;54.806;9.640;2024-02-26T04:00:06;2.00;86.10
71668;DHT22;59504;54.806;9.640;2024-02-26T04:02:26;2.00;86.10
71668;DHT22;59504;54.806;9.640;2024-02-26T04:04:47;2.00;86.10
71668;DHT22;59504;54.806;9.640;2024-02-26T04:06:48;2.00;86.00
71668;DHT22;59504;54.806;9.640;2024-02-26T04:09:08;2.00;86.00
71668;DHT22;59504;54.806;9.640;2024-02-26T04:11:30;2.10;86.00
71668;DHT22;59504;54.806;9.640;2024-02-26T04:13:51;2.10;86.00
71668;DHT22;59504;54.806;9.640;2024-02-26T04:16:12;2.10;86.20
71668;DHT22;59504;54.806;9.640;2024-02-26T04:18:27;2.10;86.10
71668;DHT22;59504;54.806;9.640;2024-02-26T04:20:48;2.10;86.20
71668;DHT22;59504;54.806;9.640;2024-02-26T04:23:08;2.20;86.20
71668;DHT22;59504;54.806;9.640;2024-02-26T04:25:29;2.20;86.20
71668;DHT22;59504;54.806;9.640;2024-02-26T04:27:49;2.20;86.20
71668;DHT22;59504;54.806;9.640;2024-02-26T04:30:10;2.20;86.20
71668;DHT22;59504;54.806;9.640;2024-02-26T04:32:31;2.30;86.30
71668;DHT22;59504;54.806;9.640;2024-02-26T04:34:51;2.30;86.20
71668;DHT22;59504;54.806;9.640;2024-02-26T04:37:12;2.30;86.20
71668;DHT22;59504;54.806;9.640;2024-02-26T04:39:32;2.30;86.20
71668;DHT22;59504;54.806;9.640;2024-02-26T04:41:53;2.40;86.20
71668;DHT22;59504;54.806;9.640;2024-02-26T04:44:13;2.30;86.10
71668;DHT22;59504;54.806;9.640;2024-02-26T04:46:34;2.20;86.00
71668;DHT22;59504;54.806;9.640;2024-02-26T04:48:54;2.30;86.10
71668;DHT22;59504;54.806;9.640;2024-02-26T04:51:15;2.20;86.00
71668;DHT22;59504;54.806;9.640;2024-02-26T04:53:36;2.20;86.00
71668;DHT22;59504;54.806;9.640;2024-02-26T04:55:56;2.20;85.90
71668;DHT22;59504;54.806;9.640;2024-02-26T04:58:17;2.20;85.90
71668;DHT22;59504;54.806;9.640;2024-02-26T05:00:37;2.20;86.00
71668;DHT22;59504;54.806;9.640;2024-02-26T05:02:57;2.20;86.00
71668;DHT22;59504;54.806;9.640;2024-02-26T05:05:18;2.20;86.00
71668;DHT22;59504;54.806;9.640;2024-02-26T05:07:39;2.20;86.00
71668;DHT22;59504;54.806;9.640;2024-02-26T05:10:00;2.20;86.00
71668;DHT22;59504;54.806;9.640;2024-02-26T05:12:21;2.20;86.10
71668;DHT22;59504;54.806;9.640;2024-02-26T05:14:41;2.20;86.10
71668;DHT22;59504;54.806;9.640;2024-02-26T05:17:03;2.20;86.10
71668;DHT22;59504;54.806;9.640;2024-02-26T05:19:23;2.30;86.30
71668;DHT22;59504;54.806;9.640;2024-02-26T05:21:44;2.30;86.40
71668;DHT22;59504;54.806;9.640;2024-02-26T05:24:05;2.30;86.40
71668;DHT22;59504;54.806;9.640;2024-02-26T05:26:26;2.30;86.40
71668;DHT22;59504;54.806;9.640;2024-02-26T05:28:50;2.40;86.50
71668;DHT22;59504;54.806;9.640;2024-02-26T05:31:12;2.40;86.40
71668;DHT22;59504;54.806;9.640;2024-02-26T05:33:33;2.40;86.40
71668;DHT22;59504;54.806;9.640;2024-02-26T05:35:53;2.50;86.50
71668;DHT22;59504;54.806;9.640;2024-02-26T05:38:14;2.40;86.50
71668;DHT22;59504;54.806;9.640;2024-02-26T05:40:34;2.50;86.60
71668;DHT22;59504;54.806;9.640;2024-02-26T05:42:55;2.50;86.60
71668;DHT22;59504;54.806;9.640;2024-02-26T05:45:16;2.50;86.70
71668;DHT22;59504;54.806;9.640;2024-02-26T05:47:39;2.50;86.60
71668;DHT22;59504;54.806;9.640;2024-02-26T05:50:02;2.50;86.60
71668;DHT22;59504;54.806;9.640;2024-02-26T05:52:03;2.60;86.70
71668;DHT22;59504;54.806;9.640;2024-02-26T05:54:04;2.60;86.70
71668;DHT22;59504;54.806;9.640;2024-02-26T05:56:05;2.60;86.80
71668;DHT22;59504;54.806;9.640;2024-02-26T05:58:06;2.60;86.70
71668;DHT22;59504;54.806;9.640;2024-02-26T06:00:06;2.70;86.80
71668;DHT22;59504;54.806;9.640;2024-02-26T06:02:07;2.70;86.70
71668;DHT22;59504;54.806;9.640;2024-02-26T06:04:08;2.70;86.80
71668;DHT22;59504;54.806;9.640;2024-02-26T06:06:08;2.70;86.90
71668;DHT22;59504;54.806;9.640;2024-02-26T06:08:11;2.80;86.90
71668;DHT22;59504;54.806;9.640;2024-02-26T06:10:31;2.80;86.90
71668;DHT22;59504;54.806;9.640;2024-02-26T06:12:35;2.80;86.90
71668;DHT22;59504;54.806;9.640;2024-02-26T06:14:55;2.90;86.90
71668;DHT22;59504;54.806;9.640;2024-02-26T06:17:15;2.80;86.80
71668;DHT22;59504;54.806;9.640;2024-02-26T06:19:36;2.90;86.90
71668;DHT22;59504;54.806;9.640;2024-02-26T06:21:57;2.90;86.90
71668;DHT22;59504;54.806;9.640;2024-02-26T06:24:17;2.90;86.90
71668;DHT22;59504;54.806;9.640;2024-02-26T06:26:38;2.90;86.90
71668;DHT22;59504;54.806;9.640;2024-02-26T06:28:59;2.90;86.90
71668;DHT22;59504;54.806;9.640;2024-02-26T06:31:19;3.00;87.00
71668;DHT22;59504;54.806;9.640;2024-02-26T06:33:41;3.10;87.00
71668;DHT22;59504;54.806;9.640;2024-02-26T06:36:02;3.00;86.90
71668;DHT22;59504;54.806;9.640;2024-02-26T06:38:23;3.00;86.90
71668;DHT22;59504;54.806;9.640;2024-02-26T06:40:44;3.10;87.10
71668;DHT22;59504;54.806;9.640;2024-02-26T06:43:05;3.10;87.00
71668;DHT22;59504;54.806;9.640;2024-02-26T06:45:26;3.10;87.00
71668;DHT22;59504;54.806;9.640;2024-02-26T06:47:47;3.10;87.00
71668;DHT22;59504;54.806;9.640;2024-02-26T06:50:11;3.20;87.00
71668;DHT22;59504;54.806;9.640;2024-02-26T06:52:32;3.20;87.00
71668;DHT22;59504;54.806;9.640;2024-02-26T06:54:53;3.20;87.00
71668;DHT22;59504;54.806;9.640;2024-02-26T06:57:13;3.20;87.00
71668;DHT22;59504;54.806;9.640;2024-02-26T06:59:34;3.20;87.10
71668;DHT22;59504;54.806;9.640;2024-02-26T07:01:54;3.20;86.90
71668;DHT22;59504;54.806;9.640;2024-02-26T07:04:15;3.20;86.90
71668;DHT22;59504;54.806;9.640;2024-02-26T07:06:36;3.20;86.70
71668;DHT22;59504;54.806;9.640;2024-02-26T07:08:56;3.20;86.70
71668;DHT22;59504;54.806;9.640;2024-02-26T07:11:17;3.30;86.70
71668;DHT22;59504;54.806;9.640;2024-02-26T07:13:39;3.20;86.50
71668;DHT22;59504;54.806;9.640;2024-02-26T07:15:59;3.20;86.50
71668;DHT22;59504;54.806;9.640;2024-02-26T07:18:20;3.20;86.50
71668;DHT22;59504;54.806;9.640;2024-02-26T07:20:41;3.30;86.60
71668;DHT22;59504;54.806;9.640;2024-02-26T07:23:02;3.20;86.60
71668;DHT22;59504;54.806;9.640;2024-02-26T07:25:23;3.20;86.70
71668;DHT22;59504;54.806;9.640;2024-02-26T07:27:44;3.20;86.70
71668;DHT22;59504;54.806;9.640;2024-02-26T07:30:05;3.20;86.80
71668;DHT22;59504;54.806;9.640;2024-02-26T07:32:26;3.20;86.80
71668;DHT22;59504;54.806;9.640;2024-02-26T07:34:45;3.30;86.90
71668;DHT22;59504;54.806;9.640;2024-02-26T07:37:05;3.30;86.90
71668;DHT22;59504;54.806;9.640;2024-02-26T07:39:25;3.30;87.00
71668;DHT22;59504;54.806;9.640;2024-02-26T07:41:45;3.30;87.00
71668;DHT22;59504;54.806;9.640;2024-02-26T07:44:07;3.30;87.00
71668;DHT22;59504;54.806;9.640;2024-02-26T07:46:27;3.40;87.00
71668;DHT22;59504;54.806;9.640;2024-02-26T07:48:46;3.40;87.10
71668;DHT22;59504;54.806;9.640;2024-02-26T07:51:05;3.50;88.00
71668;DHT22;59504;54.806;9.640;2024-02-26T07:53:24;3.40;87.80
71668;DHT22;59504;54.806;9.640;2024-02-26T07:55:43;3.40;87.80
71668;DHT22;59504;54.806;9.640;2024-02-26T07:58:03;3.50;87.20
71668;DHT22;59504;54.806;9.640;2024-02-26T08:00:22;3.50;87.20
71668;DHT22;59504;54.806;9.640;2024-02-26T08:02:41;3.50;87.20
71668;DHT22;59504;54.806;9.640;2024-02-26T08:05:01;3.50;87.20
71668;DHT22;59504;54.806;9.640;2024-02-26T08:07:20;3.60;87.30
71668;DHT22;59504;54.806;9.640;2024-02-26T08:09:40;3.60;87.40
71668;DHT22;59504;54.806;9.640;2024-02-26T08:11:59;3.60;87.30
71668;DHT22;59504;54.806;9.640;2024-02-26T08:14:18;3.60;87.40
71668;DHT22;59504;54.806;9.640;2024-02-26T08:16:37;3.70;87.50
71668;DHT22;59504;54.806;9.640;2024-02-26T08:18:57;3.70;87.50
71668;DHT22;59504;54.806;9.640;2024-02-26T08:21:17;3.70;87.50
71668;DHT22;59504;54.806;9.640;2024-02-26T08:23:36;3.70;88.20
71668;DHT22;59504;54.806;9.640;2024-02-26T08:25:55;3.80;87.50
71668;DHT22;59504;54.806;9.640;2024-02-26T08:28:14;3.80;87.60
71668;DHT22;59504;54.806;9.640;2024-02-26T08:30:36;3.80;87.50
71668;DHT22;59504;54.806;9.640;2024-02-26T08:32:55;3.90;87.70
71668;DHT22;59504;54.806;9.640;2024-02-26T08:35:15;3.90;87.70
71668;DHT22;59504;54.806;9.640;2024-02-26T08:37:34;3.90;87.70
71668;DHT22;59504;54.806;9.640;2024-02-26T08:39:54;4.00;87.80
71668;DHT22;59504;54.806;9.640;2024-02-26T08:42:13;4.10;87.90
71668;DHT22;59504;54.806;9.640;2024-02-26T08:44:32;4.00;87.80
71668;DHT22;59504;54.806;9.640;2024-02-26T08:46:51;4.10;88.10
71668;DHT22;59504;54.806;9.640;2024-02-26T08:49:11;4.10;88.30
71668;DHT22;59504;54.806;9.640;2024-02-26T08:51:30;4.10;88.50
71668;DHT22;59504;54.806;9.640;2024-02-26T08:53:49;4.10;88.50
71668;DHT22;59504;54.806;9.640;2024-02-26T08:56:10;4.10;88.40
71668;DHT22;59504;54.806;9.640;2024-02-26T08:58:35;4.20;88.40
71668;DHT22;59504;54.806;9.640;2024-02-26T09:00:55;4.20;89.10
71668;DHT22;59504;54.806;9.640;2024-02-26T09:03:14;4.20;89.10
71668;DHT22;59504;54.806;9.640;2024-02-26T09:05:33;4.20;88.80
71668;DHT22;59504;54.806;9.640;2024-02-26T09:07:52;4.20;88.20
71668;DHT22;59504;54.806;9.640;2024-02-26T09:10:11;4.20;88.30
71668;DHT22;59504;54.806;9.640;2024-02-26T09:12:31;4.20;88.20
71668;DHT22;59504;54.806;9.640;2024-02-26T09:14:50;4.20;88.30
71668;DHT22;59504;54.806;9.640;2024-02-26T09:17:09;4.20;88.30
71668;DHT22;59504;54.806;9.640;2024-02-26T09:19:29;4.20;88.30
71668;DHT22;59504;54.806;9.640;2024-02-26T09:21:48;4.20;88.50
71668;DHT22;59504;54.806;9.640;2024-02-26T09:24:07;4.20;88.70
71668;DHT22;59504;54.806;9.640;2024-02-26T09:26:26;4.20;88.60
71668;DHT22;59504;54.806;9.640;2024-02-26T09:28:46;4.30;89.30
71668;DHT22;59504;54.806;9.640;2024-02-26T09:31:05;4.30;89.20
71668;DHT22;59504;54.806;9.640;2024-02-26T09:33:25;4.40;88.60
71668;DHT22;59504;54.806;9.640;2024-02-26T09:35:44;4.40;88.70
71668;DHT22;59504;54.806;9.640;2024-02-26T09:38:04;4.40;88.80
71668;DHT22;59504;54.806;9.640;2024-02-26T09:40:23;4.50;88.70
71668;DHT22;59504;54.806;9.640;2024-02-26T09:42:45;4.40;88.50
71668;DHT22;59504;54.806;9.640;2024-02-26T09:45:05;4.50;88.60
71668;DHT22;59504;54.806;9.640;2024-02-26T09:47:28;4.50;88.40
71668;DHT22;59504;54.806;9.640;2024-02-26T09:49:48;4.50;88.40
71668;DHT22;59504;54.806;9.640;2024-02-26T09:52:08;4.60;88.20
71668;DHT22;59504;54.806;9.640;2024-02-26T09:54:28;4.60;88.30
71668;DHT22;59504;54.806;9.640;2024-02-26T09:56:50;4.60;88.30
71668;DHT22;59504;54.806;9.640;2024-02-26T09:59:10;4.60;88.10
71668;DHT22;59504;54.806;9.640;2024-02-26T10:01:32;4.60;88.00
71668;DHT22;59504;54.806;9.640;2024-02-26T10:03:55;4.70;88.50
71668;DHT22;59504;54.806;9.640;2024-02-26T10:06:15;4.70;87.80
71668;DHT22;59504;54.806;9.640;2024-02-26T10:08:35;4.70;87.80
71668;DHT22;59504;54.806;9.640;2024-02-26T10:10:54;4.80;87.90
71668;DHT22;59504;54.806;9.640;2024-02-26T10:13:13;4.80;88.10
71668;DHT22;59504;54.806;9.640;2024-02-26T10:15:33;4.80;88.20
71668;DHT22;59504;54.806;9.640;2024-02-26T10:17:52;4.80;88.50
71668;DHT22;59504;54.806;9.640;2024-02-26T10:20:12;4.80;88.50
71668;DHT22;59504;54.806;9.640;2024-02-26T10:22:32;4.80;88.40
71668;DHT22;59504;54.806;9.640;2024-02-26T10:24:51;4.90;88.50
71668;DHT22;59504;54.806;9.640;2024-02-26T10:27:12;4.90;88.60
71668;DHT22;59504;54.806;9.640;2024-02-26T10:29:31;4.90;88.60
71668;DHT22;59504;54.806;9.640;2024-02-26T10:31:51;5.00;88.40
71668;DHT22;59504;54.806;9.640;2024-02-26T10:34:10;5.00;88.40
71668;DHT22;59504;54.806;9.640;2024-02-26T10:36:33;5.00;88.40
71668;DHT22;59504;54.806;9.640;2024-02-26T10:38:52;5.10;88.10
71668;DHT22;59504;54.806;9.640;2024-02-26T10:41:14;5.10;88.10
71668;DHT22;59504;54.806;9.640;2024-02-26T10:43:36;5.10;88.10
71668;DHT22;59504;54.806;9.640;2024-02-26T10:45:56;5.10;87.90
71668;DHT22;59504;54.806;9.640;2024-02-26T10:48:15;5.10;88.00
71668;DHT22;59504;54.806;9.640;2024-02-26T10:50:35;5.10;87.90
71668;DHT22;59504;54.806;9.640;2024-02-26T10:52:55;5.10;87.60
71668;DHT22;59504;54.806;9.640;2024-02-26T10:55:17;5.20;87.70
71668;DHT22;59504;54.806;9.640;2024-02-26T10:57:40;5.20;87.60
71668;DHT22;59504;54.806;9.640;2024-02-26T11:00:00;5.20;87.60
71668;DHT22;59504;54.806;9.640;2024-02-26T11:02:20;5.20;87.50
71668;DHT22;59504;54.806;9.640;2024-02-26T11:04:39;5.20;87.60
71668;DHT22;59504;54.806;9.640;2024-02-26T11:06:59;5.30;87.80
71668;DHT22;59504;54.806;9.640;2024-02-26T11:09:20;5.20;87.90
71668;DHT22;59504;54.806;9.640;2024-02-26T11:11:39;5.30;88.00
71668;DHT22;59504;54.806;9.640;2024-02-26T11:13:59;5.20;87.50
71668;DHT22;59504;54.806;9.640;2024-02-26T11:16:23;5.20;87.40
71668;DHT22;59504;54.806;9.640;2024-02-26T11:18:42;5.20;86.80
71668;DHT22;59504;54.806;9.640;2024-02-26T11:21:01;5.20;86.60
71668;DHT22;59504;54.806;9.640;2024-02-26T11:23:22;5.20;86.50
71668;DHT22;59504;54.806;9.640;2024-02-26T11:25:41;5.20;86.60
71668;DHT22;59504;54.806;9.640;2024-02-26T11:28:03;5.30;87.50
71668;DHT22;59504;54.806;9.640;2024-02-26T11:30:23;5.30;87.50
71668;DHT22;59504;54.806;9.640;2024-02-26T11:32:44;5.40;86.70
71668;DHT22;59504;54.806;9.640;2024-02-26T11:35:04;5.40;87.50
71668;DHT22;59504;54.806;9.640;2024-02-26T11:37:29;5.40;87.20
71668;DHT22;59504;54.806;9.640;2024-02-26T11:39:48;5.40;86.60
71668;DHT22;59504;54.806;9.640;2024-02-26T11:42:10;5.50;86.50
71668;DHT22;59504;54.806;9.640;2024-02-26T11:44:32;5.50;86.50
71668;DHT22;59504;54.806;9.640;2024-02-26T11:46:51;5.50;86.40
71668;DHT22;59504;54.806;9.640;2024-02-26T11:51:42;5.50;86.50
71668;DHT22;59504;54.806;9.640;2024-02-26T11:54:02;5.50;86.80
71668;DHT22;59504;54.806;9.640;2024-02-26T11:56:21;5.60;87.00
71668;DHT22;59504;54.806;9.640;2024-02-26T11:58:46;5.50;86.20
71668;DHT22;59504;54.806;9.640;2024-02-26T12:01:05;5.60;86.90
71668;DHT22;59504;54.806;9.640;2024-02-26T12:03:24;5.60;86.20
71668;DHT22;59504;54.806;9.640;2024-02-26T12:05:43;5.70;87.00
71668;DHT22;59504;54.806;9.640;2024-02-26T12:08:07;5.60;86.40
71668;DHT22;59504;54.806;9.640;2024-02-26T12:10:27;5.70;86.50
71668;DHT22;59504;54.806;9.640;2024-02-26T12:12:47;5.70;86.40
71668;DHT22;59504;54.806;9.640;2024-02-26T12:15:06;5.80;86.00
71668;DHT22;59504;54.806;9.640;2024-02-26T12:17:27;5.70;86.40
71668;DHT22;59504;54.806;9.640;2024-02-26T12:19:47;5.70;85.70
71668;DHT22;59504;54.806;9.640;2024-02-26T12:22:06;5.80;85.80
71668;DHT22;59504;54.806;9.640;2024-02-26T12:24:26;5.80;85.90
71668;DHT22;59504;54.806;9.640;2024-02-26T12:26:45;5.80;85.90
71668;DHT22;59504;54.806;9.640;2024-02-26T12:29:04;5.90;86.00
71668;DHT22;59504;54.806;9.640;2024-02-26T12:31:24;5.90;85.90
71668;DHT22;59504;54.806;9.640;2024-02-26T12:33:43;5.90;85.40
71668;DHT22;59504;54.806;9.640;2024-02-26T12:36:02;6.00;85.70
71668;DHT22;59504;54.806;9.640;2024-02-26T12:38:21;6.00;85.30
71668;DHT22;59504;54.806;9.640;2024-02-26T12:40:41;6.00;86.10
71668;DHT22;59504;54.806;9.640;2024-02-26T12:43:00;6.00;86.00
71668;DHT22;59504;54.806;9.640;2024-02-26T12:45:19;6.10;85.30
71668;DHT22;59504;54.806;9.640;2024-02-26T12:47:40;6.10;85.00
71668;DHT22;59504;54.806;9.640;2024-02-26T12:49:59;6.20;85.30
71668;DHT22;59504;54.806;9.640;2024-02-26T12:52:18;6.20;85.30
71668;DHT22;59504;54.806;9.640;2024-02-26T12:54:37;6.20;84.90
71668;DHT22;59504;54.806;9.640;2024-02-26T12:56:58;6.20;84.60
71668;DHT22;59504;54.806;9.640;2024-02-26T12:59:18;6.30;84.60
71668;DHT22;59504;54.806;9.640;2024-02-26T13:01:37;6.30;84.20
71668;DHT22;59504;54.806;9.640;2024-02-26T13:03:56;6.20;83.20
71668;DHT22;59504;54.806;9.640;2024-02-26T13:06:16;6.20;82.60
71668;DHT22;59504;54.806;9.640;2024-02-26T13:08:36;6.20;83.10
71668;DHT22;59504;54.806;9.640;2024-02-26T13:10:55;6.20;82.30
71668;DHT22;59504;54.806;9.640;2024-02-26T13:13:15;6.30;82.50
71668;DHT22;59504;54.806;9.640;2024-02-26T13:15:36;6.30;82.50
71668;DHT22;59504;54.806;9.640;2024-02-26T13:17:55;6.30;82.20
71668;DHT22;59504;54.806;9.640;2024-02-26T13:20:25;6.20;81.80
71668;DHT22;59504;54.806;9.640;2024-02-26T13:22:44;6.20;82.60
71668;DHT22;59504;54.806;9.640;2024-02-26T13:25:04;6.30;82.10
71668;DHT22;59504;54.806;9.640;2024-02-26T13:27:26;6.30;82.10
71668;DHT22;59504;54.806;9.640;2024-02-26T13:29:45;6.30;82.10
71668;DHT22;59504;54.806;9.640;2024-02-26T13:32:04;6.40;82.30
71668;DHT22;59504;54.806;9.640;2024-02-26T13:34:25;6.40;82.10
71668;DHT22;59504;54.806;9.640;2024-02-26T13:36:45;6.40;81.60
71668;DHT22;59504;54.806;9.640;2024-02-26T13:39:05;6.40;81.40
71668;DHT22;59504;54.806;9.640;2024-02-26T13:41:24;6.40;81.10
71668;DHT22;59504;54.806;9.640;2024-02-26T13:43:44;6.50;81.30
71668;DHT22;59504;54.806;9.640;2024-02-26T13:46:03;6.50;81.40
71668;DHT22;59504;54.806;9.640;2024-02-26T13:48:23;6.50;80.50
71668;DHT22;59504;54.806;9.640;2024-02-26T13:50:42;6.50;80.50
71668;DHT22;59504;54.806;9.640;2024-02-26T13:53:04;6.50;80.80
71668;DHT22;59504;54.806;9.640;2024-02-26T13:55:25;6.50;80.50
71668;DHT22;59504;54.806;9.640;2024-02-26T13:57:45;6.60;80.50
71668;DHT22;59504;54.806;9.640;2024-02-26T14:00:04;6.60;79.80
71668;DHT22;59504;54.806;9.640;2024-02-26T14:02:25;6.50;79.40
71668;DHT22;59504;54.806;9.640;2024-02-26T14:04:44;6.60;79.40
71668;DHT22;59504;54.806;9.640;2024-02-26T14:07:04;6.60;79.40
71668;DHT22;59504;54.806;9.640;2024-02-26T14:09:23;6.50;78.30
71668;DHT22;59504;54.806;9.640;2024-02-26T14:11:43;6.60;79.20
71668;DHT22;59504;54.806;9.640;2024-02-26T14:14:02;6.60;78.60
71668;DHT22;59504;54.806;9.640;2024-02-26T14:16:21;6.60;78.70
71668;DHT22;59504;54.806;9.640;2024-02-26T14:18:40;6.60;79.00
71668;DHT22;59504;54.806;9.640;2024-02-26T14:21:03;6.60;78.70
71668;DHT22;59504;54.806;9.640;2024-02-26T14:23:22;6.60;78.50
71668;DHT22;59504;54.806;9.640;2024-02-26T14:25:41;6.60;78.20
71668;DHT22;59504;54.806;9.640;2024-02-26T14:28:01;6.60;77.90
71668;DHT22;59504;54.806;9.640;2024-02-26T14:30:20;6.60;77.80
71668;DHT22;59504;54.806;9.640;2024-02-26T14:32:39;6.60;77.50
71668;DHT22;59504;54.806;9.640;2024-02-26T14:34:58;6.60;78.30
71668;DHT22;59504;54.806;9.640;2024-02-26T14:37:18;6.60;77.70
71668;DHT22;59504;54.806;9.640;2024-02-26T14:39:37;6.50;78.50
71668;DHT22;59504;54.806;9.640;2024-02-26T14:41:57;6.50;77.80
71668;DHT22;59504;54.806;9.640;2024-02-26T14:44:17;6.50;77.80
71668;DHT22;59504;54.806;9.640;2024-02-26T14:46:36;6.50;78.00
71668;DHT22;59504;54.806;9.640;2024-02-26T14:48:55;6.50;78.70
71668;DHT22;59504;54.806;9.640;2024-02-26T14:51:14;6.40;77.60
71668;DHT22;59504;54.806;9.640;2024-02-26T14:53:34;6.50;78.00
71668;DHT22;59504;54.806;9.640;2024-02-26T14:55:53;6.40;78.00